createdAt,value
2017-09-22T00:00:06.063Z,10.25
2017-09-22T00:01:06.067Z,10.27
2017-09-22T00:02:01.129Z,10.26
2017-09-22T00:02:55.152Z,10.25
2017-09-22T00:03:55.447Z,10.28
2017-09-22T00:04:50.258Z,10.24
2017-09-22T00:05:56.248Z,10.24
2017-09-22T00:06:51.301Z,10.22
2017-09-22T00:07:45.296Z,10.18
2017-09-22T00:08:45.338Z,10.18
2017-09-22T00:09:45.411Z,10.20
2017-09-22T00:10:40.416Z,10.19
2017-09-22T00:11:34.427Z,10.20
2017-09-22T00:12:34.731Z,10.21
2017-09-22T00:13:29.564Z,10.26
2017-09-22T00:14:24.509Z,10.28
2017-09-22T00:15:25.564Z,10.33
2017-09-22T00:16:25.573Z,10.32
2017-09-22T00:17:25.630Z,10.30
2017-09-22T00:18:20.946Z,10.32
2017-09-22T00:19:14.728Z,10.30
2017-09-22T00:20:14.702Z,10.32
2017-09-22T00:21:09.766Z,10.35
2017-09-22T00:22:10.054Z,10.34
2017-09-22T00:23:03.787Z,10.37
2017-09-22T00:24:03.830Z,10.38
2017-09-22T00:24:58.876Z,10.36
2017-09-22T00:25:53.916Z,10.36
2017-09-22T00:26:54.917Z,10.34
2017-09-22T00:27:55.200Z,10.36
2017-09-22T00:28:49.970Z,10.36
2017-09-22T00:29:49.986Z,10.33
2017-09-22T00:30:44.070Z,10.35
2017-09-22T00:31:44.045Z,10.34
2017-09-22T00:32:39.073Z,10.29
2017-09-22T00:33:34.085Z,10.31
2017-09-22T00:34:34.165Z,10.30
2017-09-22T00:35:29.165Z,10.30
2017-09-22T00:36:24.262Z,10.29
2017-09-22T00:37:25.276Z,10.28
2017-09-22T00:38:25.276Z,10.28
2017-09-22T00:39:20.300Z,10.27
2017-09-22T00:40:20.351Z,10.25
2017-09-22T00:41:14.361Z,10.22
2017-09-22T00:42:14.662Z,10.20
2017-09-22T00:43:09.458Z,10.16
2017-09-22T00:44:09.462Z,10.14
2017-09-22T00:45:09.476Z,10.14
2017-09-22T00:46:09.533Z,10.15
2017-09-22T00:47:03.557Z,10.14
2017-09-22T00:48:03.646Z,10.15
2017-09-22T00:48:58.627Z,10.15
2017-09-22T00:49:53.670Z,10.13
2017-09-22T00:50:53.664Z,10.09
2017-09-22T00:51:48.676Z,10.03
2017-09-22T00:52:43.743Z,10.04
2017-09-22T00:53:43.760Z,10.05
2017-09-22T00:54:38.811Z,10.02
2017-09-22T00:55:33.833Z,9.97
2017-09-22T00:56:39.845Z,9.89
2017-09-22T00:57:34.025Z,9.86
2017-09-22T00:58:34.924Z,9.84
2017-09-22T00:59:34.948Z,9.84
2017-09-22T01:00:34.959Z,9.84
2017-09-22T01:01:29.973Z,9.88
2017-09-22T01:02:24.207Z,9.84
2017-09-22T01:03:24.058Z,9.84
2017-09-22T01:04:19.114Z,9.84
2017-09-22T01:05:19.161Z,9.80
2017-09-22T01:06:13.160Z,9.75
2017-09-22T01:07:13.263Z,9.68
2017-09-22T01:08:08.239Z,9.65
2017-09-22T01:09:08.303Z,9.60
2017-09-22T01:10:08.267Z,9.60
2017-09-22T01:11:14.331Z,9.59
2017-09-22T01:12:09.429Z,9.57
2017-09-22T01:13:03.385Z,9.56
2017-09-22T01:14:03.426Z,9.54
2017-09-22T01:15:03.467Z,9.54
2017-09-22T01:15:58.455Z,9.58
2017-09-22T01:16:52.534Z,9.60
2017-09-22T01:17:52.547Z,9.62
2017-09-22T01:18:47.562Z,9.69
2017-09-22T01:19:42.579Z,9.70
2017-09-22T01:20:43.595Z,9.72
2017-09-22T01:21:43.656Z,9.68
2017-09-22T01:22:44.009Z,9.65
2017-09-22T01:23:43.732Z,9.69
2017-09-22T01:24:44.747Z,9.65
2017-09-22T01:25:45.773Z,9.60
2017-09-22T01:26:39.824Z,9.58
2017-09-22T01:27:39.856Z,9.52
2017-09-22T01:28:34.866Z,9.54
2017-09-22T01:29:29.949Z,9.50
2017-09-22T01:30:29.936Z,9.46
2017-09-22T01:31:25.161Z,9.45
2017-09-22T01:32:19.969Z,9.42
2017-09-22T01:33:20.098Z,9.43
2017-09-22T01:34:15.037Z,9.40
2017-09-22T01:35:10.064Z,9.42
2017-09-22T01:36:16.125Z,9.40
2017-09-22T01:37:16.369Z,9.38
2017-09-22T01:38:16.205Z,9.38
2017-09-22T01:39:10.181Z,9.41
2017-09-22T01:40:10.261Z,9.42
2017-09-22T01:41:10.254Z,9.44
2017-09-22T01:42:10.559Z,9.44
2017-09-22T01:43:10.331Z,9.49
2017-09-22T01:44:05.356Z,9.46
2017-09-22T01:45:05.367Z,9.46
2017-09-22T01:46:05.424Z,9.48
2017-09-22T01:46:59.445Z,9.50
2017-09-22T01:48:00.466Z,9.48
2017-09-22T01:48:55.480Z,9.54
2017-09-22T01:49:49.539Z,9.52
2017-09-22T01:50:49.554Z,9.46
2017-09-22T01:51:44.591Z,9.44
2017-09-22T01:52:44.591Z,9.43
2017-09-22T01:53:38.664Z,9.44
2017-09-22T01:54:39.663Z,9.42
2017-09-22T01:55:40.721Z,9.40
2017-09-22T01:56:35.757Z,9.38
2017-09-22T01:57:29.831Z,9.34
2017-09-22T01:58:30.825Z,9.35
2017-09-22T01:59:31.845Z,9.36
2017-09-22T02:00:32.046Z,9.36
2017-09-22T02:01:32.880Z,9.36
2017-09-22T02:02:26.926Z,9.33
2017-09-22T02:03:26.964Z,9.27
2017-09-22T02:04:21.967Z,9.28
2017-09-22T02:05:17.007Z,9.24
2017-09-22T02:06:17.323Z,9.19
2017-09-22T02:07:12.067Z,9.15
2017-09-22T02:08:07.079Z,9.17
2017-09-22T02:09:08.155Z,9.18
2017-09-22T02:10:08.380Z,9.17
2017-09-22T02:11:03.178Z,9.24
2017-09-22T02:12:09.235Z,9.25
2017-09-22T02:13:09.248Z,9.27
2017-09-22T02:14:10.654Z,9.28
2017-09-22T02:15:04.297Z,9.27
2017-09-22T02:16:04.350Z,9.25
2017-09-22T02:16:59.363Z,9.30
2017-09-22T02:17:54.374Z,9.30
2017-09-22T02:19:00.431Z,9.33
2017-09-22T02:19:54.459Z,9.34
2017-09-22T02:20:54.479Z,9.34
2017-09-22T02:21:49.484Z,9.36
2017-09-22T02:22:49.729Z,9.34
2017-09-22T02:23:43.564Z,9.38
2017-09-22T02:24:43.577Z,9.32
2017-09-22T02:25:38.654Z,9.28
2017-09-22T02:26:33.668Z,9.24
2017-09-22T02:27:33.675Z,9.20
2017-09-22T02:28:28.691Z,9.20
2017-09-22T02:29:23.766Z,9.24
2017-09-22T02:30:23.780Z,9.25
2017-09-22T02:31:18.857Z,9.27
2017-09-22T02:32:13.858Z,9.28
2017-09-22T02:33:14.871Z,9.29
2017-09-22T02:34:14.884Z,9.33
2017-09-22T02:35:14.943Z,9.38
2017-09-22T02:36:09.964Z,9.36
2017-09-22T02:37:03.989Z,9.40
2017-09-22T02:38:04.051Z,9.38
2017-09-22T02:38:59.062Z,9.36
2017-09-22T02:39:59.073Z,9.36
2017-09-22T02:40:53.116Z,9.32
2017-09-22T02:41:53.155Z,9.32
2017-09-22T02:42:48.272Z,9.30
2017-09-22T02:43:43.189Z,9.31
2017-09-22T02:44:43.253Z,9.32
2017-09-22T02:45:38.266Z,9.32
2017-09-22T02:46:33.287Z,9.30
2017-09-22T02:47:34.353Z,9.27
2017-09-22T02:48:34.474Z,9.25
2017-09-22T02:49:34.413Z,9.26
2017-09-22T02:50:29.445Z,9.23
2017-09-22T02:51:23.465Z,9.20
2017-09-22T02:52:23.750Z,9.18
2017-09-22T02:53:18.542Z,9.24
2017-09-22T02:54:18.722Z,9.28
2017-09-22T02:55:12.571Z,9.26
2017-09-22T02:56:12.628Z,9.24
2017-09-22T02:57:07.647Z,9.24
2017-09-22T02:58:02.663Z,9.21
2017-09-22T02:59:02.681Z,9.24
2017-09-22T02:59:57.751Z,9.22
2017-09-22T03:00:57.757Z,9.27
2017-09-22T03:01:57.769Z,9.30
2017-09-22T03:03:03.828Z,9.35
2017-09-22T03:03:58.847Z,9.35
2017-09-22T03:04:59.887Z,9.30
2017-09-22T03:06:00.873Z,9.28
2017-09-22T03:07:00.935Z,9.23
2017-09-22T03:08:00.952Z,9.16
2017-09-22T03:08:55.962Z,9.21
2017-09-22T03:09:50.033Z,9.24
2017-09-22T03:10:50.061Z,9.26
2017-09-22T03:11:45.170Z,9.33
2017-09-22T03:12:40.125Z,9.32
2017-09-22T03:13:40.149Z,9.34
2017-09-22T03:14:35.170Z,9.34
2017-09-22T03:15:30.183Z,9.32
2017-09-22T03:16:30.255Z,9.32
2017-09-22T03:17:25.263Z,9.30
2017-09-22T03:18:20.282Z,9.26
2017-09-22T03:19:26.286Z,9.26
2017-09-22T03:20:20.352Z,9.25
2017-09-22T03:21:20.376Z,9.21
2017-09-22T03:22:15.739Z,9.18
2017-09-22T03:23:15.445Z,9.22
2017-09-22T03:24:09.463Z,9.21
2017-09-22T03:25:09.479Z,9.18
2017-09-22T03:26:04.546Z,9.18
2017-09-22T03:26:59.566Z,9.19
2017-09-22T03:27:59.554Z,9.21
2017-09-22T03:28:54.643Z,9.26
2017-09-22T03:29:49.674Z,9.27
2017-09-22T03:30:49.682Z,9.31
2017-09-22T03:31:44.694Z,9.30
2017-09-22T03:32:39.751Z,9.24
2017-09-22T03:33:40.774Z,9.22
2017-09-22T03:34:40.775Z,9.20
2017-09-22T03:35:40.838Z,9.20
2017-09-22T03:36:35.860Z,9.19
2017-09-22T03:37:29.878Z,9.16
2017-09-22T03:38:29.942Z,9.20
2017-09-22T03:39:25.164Z,9.18
2017-09-22T03:40:24.991Z,9.18
2017-09-22T03:41:19.030Z,9.21
2017-09-22T03:42:19.024Z,9.26
2017-09-22T03:43:14.168Z,9.25
2017-09-22T03:44:09.127Z,9.23
2017-09-22T03:45:09.150Z,9.22
2017-09-22T03:46:04.166Z,9.20
2017-09-22T03:46:59.192Z,9.17
2017-09-22T03:48:00.407Z,9.12
2017-09-22T03:49:00.261Z,9.08
2017-09-22T03:50:00.268Z,9.06
2017-09-22T03:50:55.351Z,9.08
2017-09-22T03:51:49.354Z,9.08
2017-09-22T03:52:49.366Z,9.12
2017-09-22T03:53:44.436Z,9.14
2017-09-22T03:54:44.449Z,9.13
2017-09-22T03:55:38.465Z,9.10
2017-09-22T03:56:38.552Z,9.10
2017-09-22T03:57:33.519Z,9.06
2017-09-22T03:58:28.563Z,9.05
2017-09-22T03:59:28.582Z,9.02
2017-09-22T04:00:23.589Z,9.02
2017-09-22T04:01:23.657Z,8.98
2017-09-22T04:02:23.720Z,8.96
2017-09-22T04:03:23.730Z,8.96
2017-09-22T04:04:17.750Z,8.94
2017-09-22T04:05:17.760Z,8.90
2017-09-22T04:06:12.794Z,8.92
2017-09-22T04:07:07.844Z,8.95
2017-09-22T04:08:08.866Z,8.98
2017-09-22T04:09:08.874Z,9.02
2017-09-22T04:10:08.930Z,9.06
2017-09-22T04:11:03.951Z,9.08
2017-09-22T04:11:57.972Z,9.06
2017-09-22T04:12:58.298Z,9.05
2017-09-22T04:13:53.083Z,9.04
2017-09-22T04:14:53.067Z,9.02
2017-09-22T04:15:47.094Z,9.04
2017-09-22T04:16:47.103Z,9.02
2017-09-22T04:17:42.285Z,9.00
2017-09-22T04:18:37.185Z,9.04
2017-09-22T04:19:37.248Z,9.05
2017-09-22T04:20:32.250Z,9.06
2017-09-22T04:21:27.275Z,9.06
2017-09-22T04:22:28.329Z,9.02
2017-09-22T04:23:28.354Z,8.98
2017-09-22T04:24:28.364Z,8.95
2017-09-22T04:25:23.427Z,8.91
2017-09-22T04:26:17.452Z,8.87
2017-09-22T04:27:17.457Z,8.80
2017-09-22T04:28:12.473Z,8.80
2017-09-22T04:29:12.510Z,8.77
2017-09-22T04:30:06.570Z,8.78
2017-09-22T04:31:06.647Z,8.75
2017-09-22T04:32:01.582Z,8.73
2017-09-22T04:32:56.665Z,8.70
2017-09-22T04:33:56.665Z,8.68
2017-09-22T04:34:51.744Z,8.64
2017-09-22T04:35:46.757Z,8.61
2017-09-22T04:36:52.766Z,8.62
2017-09-22T04:37:46.779Z,8.58
2017-09-22T04:38:46.833Z,8.62
2017-09-22T04:39:41.854Z,8.64
2017-09-22T04:40:41.873Z,8.66
2017-09-22T04:41:35.927Z,8.69
2017-09-22T04:42:35.968Z,8.71
2017-09-22T04:43:30.968Z,8.70
2017-09-22T04:44:30.981Z,8.75
2017-09-22T04:45:31.038Z,8.80
2017-09-22T04:46:31.059Z,8.88
2017-09-22T04:47:25.070Z,8.93
2017-09-22T04:48:25.160Z,9.01
2017-09-22T04:49:20.160Z,9.10
2017-09-22T04:50:15.461Z,9.14
2017-09-22T04:51:15.231Z,9.15
2017-09-22T04:52:10.251Z,9.14
2017-09-22T04:53:10.268Z,9.15
2017-09-22T04:54:10.291Z,9.14
2017-09-22T04:55:10.570Z,9.14
2017-09-22T04:56:04.353Z,9.10
2017-09-22T04:57:04.375Z,9.02
2017-09-22T04:57:59.436Z,8.96
2017-09-22T04:58:54.454Z,8.90
2017-09-22T04:59:54.474Z,8.87
2017-09-22T05:00:49.508Z,8.84
2017-09-22T05:01:44.523Z,8.84
2017-09-22T05:02:50.759Z,8.84
2017-09-22T05:03:44.589Z,8.84
2017-09-22T05:04:44.588Z,8.86
2017-09-22T05:05:39.759Z,8.83
2017-09-22T05:06:39.680Z,8.81
2017-09-22T05:07:39.680Z,8.79
2017-09-22T05:08:39.752Z,8.79
2017-09-22T05:09:39.770Z,8.82
2017-09-22T05:10:39.777Z,8.86
2017-09-22T05:11:39.850Z,8.88
2017-09-22T05:12:39.859Z,8.90
2017-09-22T05:13:39.883Z,9.00
2017-09-22T05:14:39.885Z,9.04
2017-09-22T05:15:39.958Z,9.02
2017-09-22T05:16:39.965Z,8.94
2017-09-22T05:17:39.988Z,8.88
2017-09-22T05:18:39.997Z,8.90
2017-09-22T05:19:40.029Z,8.92
2017-09-22T05:20:40.074Z,8.95
2017-09-22T05:21:40.165Z,8.94
2017-09-22T05:22:40.226Z,8.94
2017-09-22T05:23:40.176Z,8.88
2017-09-22T05:24:40.176Z,8.95
2017-09-22T05:25:40.237Z,8.90
2017-09-22T05:26:40.260Z,8.87
2017-09-22T05:27:40.267Z,8.86
2017-09-22T05:28:40.426Z,8.83
2017-09-22T05:29:40.359Z,8.82
2017-09-22T05:30:40.361Z,8.88
2017-09-22T05:31:40.380Z,8.84
2017-09-22T05:32:40.436Z,8.88
2017-09-22T05:33:40.470Z,8.87
2017-09-22T05:34:40.476Z,8.94
2017-09-22T05:35:40.549Z,8.99
2017-09-22T05:36:40.553Z,9.03
2017-09-22T05:37:40.565Z,9.07
2017-09-22T05:38:40.582Z,8.96
2017-09-22T05:39:40.604Z,9.06
2017-09-22T05:40:46.671Z,9.08
2017-09-22T05:41:41.669Z,9.14
2017-09-22T05:42:35.689Z,9.24
2017-09-22T05:43:35.764Z,9.27
2017-09-22T05:44:30.766Z,9.38
2017-09-22T05:45:30.824Z,9.40
2017-09-22T05:46:32.034Z,9.40
2017-09-22T05:47:31.861Z,9.45
2017-09-22T05:48:32.043Z,9.57
2017-09-22T05:49:31.947Z,9.73
2017-09-22T05:50:31.966Z,9.97
2017-09-22T05:51:31.975Z,10.20
2017-09-22T05:52:32.017Z,10.42
2017-09-22T05:53:32.033Z,10.62
2017-09-22T05:54:32.066Z,10.92
2017-09-22T05:55:32.078Z,11.11
2017-09-22T05:56:38.091Z,11.23
2017-09-22T05:57:38.294Z,11.30
2017-09-22T05:58:39.170Z,11.40
2017-09-22T05:59:40.228Z,11.42
2017-09-22T06:00:40.251Z,11.50
2017-09-22T06:01:35.275Z,11.50
2017-09-22T06:02:36.279Z,11.48
2017-09-22T06:03:36.368Z,11.44
2017-09-22T06:04:31.362Z,11.53
2017-09-22T06:05:26.428Z,11.47
2017-09-22T06:06:26.452Z,11.47
2017-09-22T06:07:21.673Z,11.30
2017-09-22T06:08:16.486Z,11.18
2017-09-22T06:09:10.562Z,11.00
2017-09-22T06:10:16.557Z,10.84
2017-09-22T06:11:10.584Z,10.72
2017-09-22T06:12:11.670Z,10.68
2017-09-22T06:13:06.669Z,10.70
2017-09-22T06:14:06.680Z,10.74
2017-09-22T06:15:06.771Z,10.78
2017-09-22T06:16:06.759Z,10.82
2017-09-22T06:17:12.788Z,11.02
2017-09-22T06:18:07.843Z,11.26
2017-09-22T06:19:07.875Z,11.69
2017-09-22T06:20:07.923Z,12.05
2017-09-22T06:21:01.945Z,12.37
2017-09-22T06:22:01.958Z,12.46
2017-09-22T06:22:56.990Z,12.54
2017-09-22T06:23:52.022Z,12.46
2017-09-22T06:24:46.055Z,12.57
2017-09-22T06:25:46.283Z,12.57
2017-09-22T06:26:41.362Z,12.66
2017-09-22T06:27:41.177Z,12.80
2017-09-22T06:28:41.223Z,12.86
2017-09-22T06:29:41.249Z,13.02
2017-09-22T06:30:35.269Z,13.18
2017-09-22T06:31:35.356Z,13.15
2017-09-22T06:32:30.347Z,13.13
2017-09-22T06:33:25.371Z,13.18
2017-09-22T06:34:19.452Z,13.18
2017-09-22T06:35:19.458Z,13.27
2017-09-22T06:36:14.472Z,13.36
2017-09-22T06:37:09.549Z,13.40
2017-09-22T06:38:09.575Z,13.58
2017-09-22T06:39:04.580Z,13.70
2017-09-22T06:39:59.646Z,13.90
2017-09-22T06:40:53.665Z,14.00
2017-09-22T06:41:54.723Z,14.14
2017-09-22T06:42:49.761Z,14.19
2017-09-22T06:43:49.776Z,14.18
2017-09-22T06:44:49.935Z,14.21
2017-09-22T06:45:49.864Z,14.30
2017-09-22T06:46:49.880Z,14.44
2017-09-22T06:47:50.021Z,14.58
2017-09-22T06:48:49.982Z,14.65
2017-09-22T06:49:49.982Z,14.86
2017-09-22T06:50:50.037Z,15.04
2017-09-22T06:51:50.084Z,15.21
2017-09-22T06:52:56.377Z,15.30
2017-09-22T06:53:51.224Z,15.39
2017-09-22T06:54:51.361Z,15.47
2017-09-22T06:55:51.241Z,15.54
2017-09-22T06:56:45.266Z,15.68
2017-09-22T06:57:45.301Z,15.70
2017-09-22T06:58:40.361Z,15.55
2017-09-22T06:59:35.391Z,15.36
2017-09-22T07:00:29.498Z,15.20
2017-09-22T07:01:29.542Z,14.78
2017-09-22T07:02:24.526Z,14.26
2017-09-22T07:03:24.609Z,14.07
2017-09-22T07:04:24.674Z,13.59
2017-09-22T07:05:24.787Z,13.70
2017-09-22T07:06:18.832Z,13.20
2017-09-22T07:07:18.989Z,12.86
2017-09-22T07:08:13.770Z,12.88
2017-09-22T07:09:09.016Z,13.00
2017-09-22T07:10:02.798Z,12.98
2017-09-22T07:11:02.895Z,12.98
2017-09-22T07:11:57.890Z,13.12
2017-09-22T07:12:52.974Z,12.93
2017-09-22T07:13:52.975Z,12.41
2017-09-22T07:14:48.018Z,12.54
2017-09-22T07:15:43.108Z,12.58
2017-09-22T07:16:37.091Z,12.50
2017-09-22T07:17:38.156Z,12.37
2017-09-22T07:18:33.181Z,12.42
2017-09-22T07:19:33.237Z,12.40
2017-09-22T07:20:33.268Z,12.37
2017-09-22T07:21:33.289Z,12.55
2017-09-22T07:22:33.380Z,13.05
2017-09-22T07:23:33.375Z,13.43
2017-09-22T07:24:33.482Z,13.88
2017-09-22T07:25:33.478Z,13.88
2017-09-22T07:26:33.717Z,14.56
2017-09-22T07:27:33.616Z,15.09
2017-09-22T07:28:33.679Z,15.50
2017-09-22T07:29:33.786Z,16.50
2017-09-22T07:30:39.929Z,17.13
2017-09-22T07:31:34.684Z,17.86
2017-09-22T07:32:28.758Z,18.38
2017-09-22T07:33:28.775Z,18.65
2017-09-22T07:34:23.864Z,18.68
2017-09-22T07:35:18.872Z,18.68
2017-09-22T07:36:18.886Z,18.92
2017-09-22T07:37:13.991Z,19.31
2017-09-22T07:38:09.286Z,19.16
2017-09-22T07:39:03.059Z,19.03
2017-09-22T07:40:03.145Z,18.21
2017-09-22T07:40:58.100Z,18.41
2017-09-22T07:41:53.434Z,18.77
2017-09-22T07:42:53.392Z,18.88
2017-09-22T07:43:48.528Z,18.96
2017-09-22T07:44:42.337Z,18.94
2017-09-22T07:45:36.376Z,19.08
2017-09-22T07:46:25.401Z,19.22
2017-09-22T07:47:13.484Z,19.48
2017-09-22T07:48:07.527Z,19.34
2017-09-22T07:49:02.561Z,19.19
2017-09-22T07:49:57.689Z,19.64
2017-09-22T07:50:51.789Z,19.35
2017-09-22T07:51:45.928Z,18.82
2017-09-22T07:52:34.760Z,19.07
2017-09-22T07:53:23.047Z,19.46
2017-09-22T07:54:11.890Z,19.76
2017-09-22T07:54:59.905Z,20.07
2017-09-22T07:56:00.242Z,20.32
2017-09-22T07:56:54.014Z,20.70
2017-09-22T07:57:43.047Z,20.93
2017-09-22T07:58:37.098Z,20.88
2017-09-22T07:59:25.176Z,21.06
2017-09-22T08:00:13.195Z,21.28
2017-09-22T08:01:07.278Z,21.47
2017-09-22T08:02:01.294Z,21.59
2017-09-22T08:02:55.432Z,21.42
2017-09-22T08:03:55.394Z,20.84
2017-09-22T08:04:44.513Z,20.70
2017-09-22T08:05:38.535Z,20.82
2017-09-22T08:06:27.612Z,20.76
2017-09-22T08:07:15.740Z,20.90
2017-09-22T08:08:10.677Z,21.02
2017-09-22T08:08:59.746Z,21.13
2017-09-22T08:09:53.778Z,21.24
2017-09-22T08:10:53.840Z,21.41
2017-09-22T08:11:48.177Z,21.40
2017-09-22T08:12:36.947Z,21.29
2017-09-22T08:13:31.979Z,21.22
2017-09-22T08:14:27.074Z,21.02
2017-09-22T08:15:22.375Z,21.15
2017-09-22T08:16:16.354Z,21.48
2017-09-22T08:17:16.343Z,21.36
2017-09-22T08:18:04.405Z,21.19
2017-09-22T08:18:53.449Z,21.08
2017-09-22T08:19:47.523Z,21.05
2017-09-22T08:20:42.490Z,20.84
2017-09-22T08:21:42.607Z,20.96
2017-09-22T08:22:30.669Z,21.06
2017-09-22T08:23:30.709Z,20.65
2017-09-22T08:24:19.816Z,20.57
2017-09-22T08:25:13.783Z,20.29
2017-09-22T08:26:08.956Z,20.41
2017-09-22T08:27:04.004Z,20.64
2017-09-22T08:27:58.048Z,20.71
2017-09-22T08:28:45.916Z,20.88
2017-09-22T08:29:39.898Z,20.70
2017-09-22T08:30:40.041Z,20.70
2017-09-22T08:31:34.998Z,20.61
2017-09-22T08:32:29.065Z,20.34
2017-09-22T08:33:24.102Z,20.56
2017-09-22T08:34:19.176Z,20.64
2017-09-22T08:35:14.199Z,20.57
2017-09-22T08:36:09.274Z,20.54
2017-09-22T08:36:58.306Z,20.59
2017-09-22T08:37:47.377Z,20.51
2017-09-22T08:38:41.449Z,20.46
2017-09-22T08:39:36.487Z,20.45
2017-09-22T08:40:36.534Z,20.21
2017-09-22T08:41:30.590Z,20.13
2017-09-22T08:42:24.952Z,20.33
2017-09-22T08:43:18.686Z,20.42
2017-09-22T08:44:19.784Z,20.66
2017-09-22T08:45:19.788Z,20.98
2017-09-22T08:46:19.852Z,21.11
2017-09-22T08:47:20.171Z,21.28
2017-09-22T08:48:14.951Z,21.33
2017-09-22T08:49:02.983Z,21.40
2017-09-22T08:50:03.056Z,21.28
2017-09-22T08:50:51.087Z,20.96
2017-09-22T08:51:40.183Z,20.71
2017-09-22T08:52:34.193Z,20.82
2017-09-22T08:53:28.263Z,20.80
2017-09-22T08:54:22.302Z,20.90
2017-09-22T08:55:16.376Z,21.15
2017-09-22T08:56:10.402Z,21.52
2017-09-22T08:56:58.478Z,21.75
2017-09-22T08:57:47.509Z,21.62
2017-09-22T08:58:47.546Z,21.15
2017-09-22T08:59:36.776Z,21.04
2017-09-22T09:00:30.958Z,20.95
2017-09-22T09:01:25.943Z,20.65
2017-09-22T09:02:20.094Z,20.56
2017-09-22T09:03:14.809Z,20.69
2017-09-22T09:04:08.909Z,20.82
2017-09-22T09:05:09.137Z,21.10
2017-09-22T09:06:04.001Z,21.34
2017-09-22T09:06:59.056Z,21.22
2017-09-22T09:07:59.094Z,21.30
2017-09-22T09:08:53.285Z,21.38
2017-09-22T09:09:42.392Z,21.65
2017-09-22T09:10:36.494Z,21.79
2017-09-22T09:11:30.582Z,22.10
2017-09-22T09:12:25.641Z,21.80
2017-09-22T09:13:19.638Z,21.59
2017-09-22T09:14:08.773Z,21.53
2017-09-22T09:15:03.676Z,21.38
2017-09-22T09:15:57.841Z,21.18
2017-09-22T09:16:52.869Z,21.08
2017-09-22T09:17:46.905Z,21.30
2017-09-22T09:18:34.930Z,21.44
2017-09-22T09:19:35.997Z,21.42
2017-09-22T09:20:30.015Z,21.15
2017-09-22T09:21:18.072Z,21.15
2017-09-22T09:22:12.187Z,21.44
2017-09-22T09:23:06.245Z,21.76
2017-09-22T09:24:00.323Z,21.74
2017-09-22T09:24:55.096Z,21.34
2017-09-22T09:25:49.178Z,21.04
2017-09-22T09:26:43.385Z,20.89
2017-09-22T09:27:37.526Z,20.88
2017-09-22T09:28:31.350Z,20.97
2017-09-22T09:29:20.378Z,21.17
2017-09-22T09:30:14.470Z,21.34
2017-09-22T09:31:03.478Z,21.62
2017-09-22T09:31:52.549Z,21.85
2017-09-22T09:32:52.656Z,21.96
2017-09-22T09:33:41.880Z,21.87
2017-09-22T09:34:35.886Z,22.03
2017-09-22T09:35:35.927Z,22.42
2017-09-22T09:36:29.921Z,22.27
2017-09-22T09:37:24.324Z,21.98
2017-09-22T09:38:25.071Z,21.99
2017-09-22T09:39:14.195Z,22.03
2017-09-22T09:40:03.254Z,22.06
2017-09-22T09:40:52.304Z,21.87
2017-09-22T09:41:41.370Z,21.86
2017-09-22T09:42:30.392Z,21.78
2017-09-22T09:43:19.260Z,21.61
2017-09-22T09:44:19.452Z,20.98
2017-09-22T09:45:13.532Z,20.67
2017-09-22T09:46:07.726Z,20.70
2017-09-22T09:47:08.546Z,20.81
2017-09-22T09:48:08.609Z,20.93
2017-09-22T09:49:03.585Z,20.84
2017-09-22T09:49:57.660Z,20.75
2017-09-22T09:50:52.890Z,20.58
2017-09-22T09:51:46.852Z,20.58
2017-09-22T09:52:46.772Z,20.73
2017-09-22T09:53:35.861Z,20.81
2017-09-22T09:54:30.063Z,20.98
2017-09-22T09:55:30.057Z,21.04
2017-09-22T09:56:19.067Z,21.17
2017-09-22T09:57:13.236Z,21.38
2017-09-22T09:58:08.422Z,21.32
2017-09-22T09:59:03.399Z,21.33
2017-09-22T09:59:57.217Z,21.25
2017-09-22T10:00:51.518Z,21.46
2017-09-22T10:01:40.425Z,21.70
2017-09-22T10:02:35.531Z,21.89
2017-09-22T10:03:30.449Z,21.89
2017-09-22T10:04:24.670Z,22.08
2017-09-22T10:05:24.550Z,22.34
2017-09-22T10:06:18.819Z,22.82
2017-09-22T10:07:18.846Z,22.92
2017-09-22T10:08:07.859Z,23.04
2017-09-22T10:09:02.010Z,23.42
2017-09-22T10:09:56.976Z,23.44
2017-09-22T10:10:57.026Z,23.37
2017-09-22T10:11:51.143Z,23.51
2017-09-22T10:12:40.251Z,23.71
2017-09-22T10:13:35.151Z,23.79
2017-09-22T10:14:29.068Z,23.66
2017-09-22T10:15:18.348Z,23.50
2017-09-22T10:16:12.358Z,23.64
2017-09-22T10:17:01.505Z,23.64
2017-09-22T10:17:50.496Z,23.32
2017-09-22T10:18:44.524Z,23.37
2017-09-22T10:19:38.527Z,22.31
2017-09-22T10:20:27.736Z,21.44
2017-09-22T10:21:16.793Z,21.29
2017-09-22T10:22:05.915Z,21.76
2017-09-22T10:22:59.896Z,21.83
2017-09-22T10:23:54.882Z,21.86
2017-09-22T10:24:50.036Z,22.62
2017-09-22T10:25:38.966Z,23.12
2017-09-22T10:26:28.049Z,22.88
2017-09-22T10:27:17.200Z,22.33
2017-09-22T10:28:11.247Z,22.34
2017-09-22T10:29:06.240Z,22.70
2017-09-22T10:30:01.263Z,23.33
2017-09-22T10:30:49.327Z,23.79
2017-09-22T10:31:43.491Z,24.10
2017-09-22T10:32:37.520Z,24.19
2017-09-22T10:33:31.515Z,24.44
2017-09-22T10:34:31.602Z,24.61
2017-09-22T10:35:20.584Z,24.76
2017-09-22T10:36:08.742Z,24.72
2017-09-22T10:37:02.802Z,24.47
2017-09-22T10:37:56.956Z,24.38
2017-09-22T10:38:50.892Z,24.39
2017-09-22T10:39:45.972Z,24.36
2017-09-22T10:40:40.054Z,24.25
2017-09-22T10:41:28.006Z,24.28
2017-09-22T10:42:17.098Z,24.24
2017-09-22T10:43:12.204Z,24.68
2017-09-22T10:44:01.270Z,23.93
2017-09-22T10:44:56.310Z,22.83
2017-09-22T10:45:45.345Z,22.28
2017-09-22T10:46:39.450Z,22.30
2017-09-22T10:47:34.492Z,22.49
2017-09-22T10:48:34.538Z,22.92
2017-09-22T10:49:23.588Z,23.16
2017-09-22T10:50:17.673Z,23.67
2017-09-22T10:51:05.718Z,24.07
2017-09-22T10:51:53.775Z,24.58
2017-09-22T10:52:47.796Z,24.77
2017-09-22T10:53:37.001Z,24.93
2017-09-22T10:54:31.933Z,24.69
2017-09-22T10:55:21.001Z,24.56
2017-09-22T10:56:15.082Z,24.51
2017-09-22T10:57:21.115Z,24.62
2017-09-22T10:58:15.205Z,24.46
2017-09-22T10:59:09.261Z,24.51
2017-09-22T11:00:03.298Z,24.51
2017-09-22T11:00:57.311Z,24.23
2017-09-22T11:01:51.416Z,24.05
2017-09-22T11:02:57.423Z,24.01
2017-09-22T11:03:46.520Z,24.17
2017-09-22T11:04:35.614Z,24.16
2017-09-22T11:05:29.599Z,23.79
2017-09-22T11:06:23.716Z,23.32
2017-09-22T11:07:17.719Z,23.11
2017-09-22T11:08:11.807Z,23.07
2017-09-22T11:08:59.849Z,22.93
2017-09-22T11:09:54.967Z,23.06
2017-09-22T11:10:54.984Z,23.21
2017-09-22T11:11:50.051Z,23.44
2017-09-22T11:12:49.850Z,23.44
2017-09-22T11:13:39.056Z,23.47
2017-09-22T11:14:33.042Z,23.20
2017-09-22T11:15:22.536Z,23.46
2017-09-22T11:16:17.318Z,23.64
2017-09-22T11:17:12.338Z,23.78
2017-09-22T11:18:01.428Z,23.51
2017-09-22T11:19:01.475Z,23.51
2017-09-22T11:19:56.522Z,23.56
2017-09-22T11:20:44.608Z,23.44
2017-09-22T11:21:38.645Z,23.34
2017-09-22T11:22:32.713Z,23.40
2017-09-22T11:23:26.759Z,23.14
2017-09-22T11:24:20.817Z,22.95
2017-09-22T11:25:14.883Z,22.54
2017-09-22T11:26:08.983Z,22.00
2017-09-22T11:27:03.962Z,21.74
2017-09-22T11:27:59.032Z,21.48
2017-09-22T11:28:54.132Z,21.42
2017-09-22T11:29:43.128Z,21.47
2017-09-22T11:30:38.216Z,21.36
2017-09-22T11:31:26.229Z,21.42
2017-09-22T11:32:20.321Z,21.27
2017-09-22T11:33:14.257Z,21.14
2017-09-22T11:34:09.176Z,20.94
2017-09-22T11:35:09.480Z,20.79
2017-09-22T11:36:04.370Z,20.79
2017-09-22T11:36:59.351Z,20.77
2017-09-22T11:37:53.528Z,20.75
2017-09-22T11:38:47.486Z,20.78
2017-09-22T11:39:47.724Z,20.90
2017-09-22T11:40:41.523Z,20.89
2017-09-22T11:41:41.767Z,20.67
2017-09-22T11:42:36.856Z,20.66
2017-09-22T11:43:30.927Z,20.55
2017-09-22T11:44:30.990Z,20.40
2017-09-22T11:45:26.043Z,20.41
2017-09-22T11:46:21.063Z,20.45
2017-09-22T11:47:09.172Z,20.36
2017-09-22T11:48:09.188Z,20.44
2017-09-22T11:49:03.259Z,20.50
2017-09-22T11:49:58.261Z,20.51
2017-09-22T11:50:47.352Z,20.52
2017-09-22T11:51:36.394Z,20.53
2017-09-22T11:52:30.417Z,20.48
2017-09-22T11:53:30.508Z,20.32
2017-09-22T11:54:24.539Z,20.26
2017-09-22T11:55:24.563Z,20.19
2017-09-22T11:56:13.662Z,20.06
2017-09-22T11:57:07.699Z,20.11
2017-09-22T11:58:01.750Z,20.00
2017-09-22T11:59:01.863Z,19.92
2017-09-22T11:59:55.834Z,19.82
2017-09-22T12:00:49.854Z,19.78
2017-09-22T12:01:37.916Z,19.76
2017-09-22T12:02:32.028Z,19.76
2017-09-22T12:03:26.056Z,19.74
2017-09-22T12:04:15.062Z,19.60
2017-09-22T12:05:10.061Z,19.61
2017-09-22T12:06:04.279Z,19.44
2017-09-22T12:06:53.315Z,19.45
2017-09-22T12:07:42.301Z,19.37
2017-09-22T12:08:36.433Z,19.36
2017-09-22T12:09:36.364Z,19.37
2017-09-22T12:10:30.464Z,19.27
2017-09-22T12:11:30.402Z,19.34
2017-09-22T12:12:18.505Z,19.22
2017-09-22T12:13:19.412Z,19.26
2017-09-22T12:14:13.464Z,19.38